Data for 05/24/2014

Time Sea-Level Adjusted Pressure Absolute Pressure Temperature Relative Humidity Dew Point   
(mb) (inHg) (mb) (inHg) (C) (F) (%) (C) (F)
00:05 1016 30 845 24.95 14.7 58.5 42 2.1 35.9
00:10 1016 30 845 24.95 14.6 58.2 42 1.9 35.4
00:15 1016 30 845 24.95 14.6 58.4 43 2.1 35.8
00:20 1016 30 845 24.95 14.4 58 42 1.9 35.4
00:25 1016 30 845 24.95 14.5 58.1 42 1.7 35.1
00:30 1016 30 845 24.95 14.6 58.3 41 1.8 35.2
00:35 1016 30 845 24.95 14.6 58.2 41 1.7 35
00:40 1016 30 845 24.95 14.4 57.9 43 2 35.5
00:45 1016 30 845 24.95 14.3 57.8 42 1.7 35
00:50 1016 30 846 24.98 14.3 57.7 43 1.8 35.3
00:55 1016 30 846 24.98 14.2 57.5 44 2.2 35.9
01:00 1016 30 846 24.98 14 57.1 44 1.9 35.5
01:05 1017 30.03 846 24.98 13.8 56.9 44 2 35.5
01:10 1017 30.03 846 24.98 13.6 56.4 46 2.2 36
01:15 1017 30.03 846 24.98 13.4 56.2 45 1.7 35.1
01:20 1017 30.03 846 24.98 13.8 56.8 47 2.7 36.9
01:25 1017 30.03 846 24.98 14.1 57.5 44 2.1 35.7
01:30 1017 30.03 846 24.98 13.8 56.8 47 2.7 36.9
01:35 1017 30.03 846 24.98 13.1 55.5 47 2.1 35.7
01:40 1017 30.03 846 24.98 12.9 55.1 48 2.1 35.8
01:45 1017 30.03 846 24.98 12.6 54.6 47 1.6 34.9
01:50 1017 30.03 846 24.98 13 55.4 45 1.3 34.4
01:55 1017 30.03 846 24.98 13.5 56.2 43 1.3 34.3
02:00 1017 30.03 846 24.98 13.7 56.6 45 2 35.7
02:05 1017 30.03 846 24.98 13.7 56.7 43 1.5 34.7
02:10 1017 30.03 846 24.98 13.5 56.2 45 1.7 35.1
02:15 1017 30.03 846 24.98 13.1 55.5 46 1.8 35.2
02:20 1017 30.03 846 24.98 12.8 55 47 1.8 35.3
02:25 1017 30.03 846 24.98 12.6 54.6 48 1.9 35.5
02:30 1017 30.03 846 24.98 12.3 54.1 50 2.1 35.7
02:35 1017 30.03 846 24.98 12.1 53.8 50 2.1 35.7
02:40 1017 30.03 846 24.98 11.9 53.3 52 2.5 36.5
02:45 1017 30.03 846 24.98 11.5 52.7 53 2.3 36.2
02:50 1017 30.03 846 24.98 11.4 52.6 53 2.3 36.1
02:55 1017 30.03 846 24.98 11.5 52.7 53 2.2 36
03:00 1017 30.03 846 24.98 11.6 52.8 51 1.9 35.5
03:05 1017 30.03 846 24.98 11.6 52.9 52 2 35.6
03:10 1017 30.03 846 24.98 11.6 52.9 51 1.8 35.3
03:15 1017 30.03 846 24.98 11.7 53 51 1.9 35.4
03:20 1017 30.03 846 24.98 11.6 53 53 2.3 36.2
03:25 1017 30.03 846 24.98 11.5 52.7 52 2.1 35.8
03:30 1017 30.03 846 24.98 11.5 52.8 53 2.3 36.2
03:35 1017 30.03 846 24.98 11.4 52.5 52 1.9 35.5
03:40 1017 30.03 846 24.98 11.6 52.8 52 2.1 35.8
03:45 1017 30.03 846 24.98 11.7 53 52 2.2 35.9
03:50 1017 30.03 846 24.98 11.5 52.7 53 2.3 36.2
03:55 1017 30.03 846 24.98 11.5 52.7 53 2.4 36.3
04:00 1017 30.03 846 24.98 11.3 52.4 54 2.3 36.2
04:05 1017 30.03 846 24.98 11.6 52.8 52 2.2 36
04:10 1017 30.03 846 24.98 11.7 53 52 2.3 36.2
04:15 1017 30.03 846 24.98 11.5 52.8 53 2.3 36.1
04:20 1017 30.03 846 24.98 11.3 52.4 53 2.2 36
04:25 1017 30.03 846 24.98 11.1 51.9 56 2.6 36.7
04:30 1017 30.03 846 24.98 10.5 51 57 2.5 36.4
04:35 1017 30.03 846 24.98 10.6 51.1 54 1.8 35.3
04:40 1017 30.03 846 24.98 10.8 51.5 55 2.2 35.9
04:45 1017 30.03 846 24.98 11 51.9 52 1.7 35.1
04:50 1017 30.03 846 24.98 11.4 52.5 53 2.1 35.7
04:55 1017 30.03 846 24.98 11.1 52 52 1.7 35.1
05:00 1017 30.03 846 24.98 10.9 51.7 52 1.6 34.9
05:05 1017 30.03 846 24.98 11 51.8 53 1.7 35.1
05:10 1017 30.03 846 24.98 10.8 51.4 54 1.8 35.3
05:15 1017 30.03 846 24.98 10.8 51.5 53 1.6 34.9
05:20 1017 30.03 846 24.98 11 51.7 53 1.7 35.1
05:25 1017 30.03 846 24.98 10.9 51.7 53 1.8 35.2
05:30 1017 30.03 847 25.01 11.2 52.2 53 2 35.6
05:35 1017 30.03 847 25.01 11 51.8 54 2.1 35.8
05:40 1017 30.03 847 25.01 11 51.8 53 1.8 35.3
05:45 1017 30.03 847 25.01 11.4 52.5 50 1.5 34.7
05:50 1017 30.03 847 25.01 11.5 52.7 52 2 35.6
05:55 1017 30.03 847 25.01 11.3 52.3 54 2.3 36.1
06:00 1017 30.03 847 25.01 11.3 52.3 53 2.1 35.7
06:05 1018 30.06 847 25.01 11.5 52.8 53 2.3 36.2
06:10 1018 30.06 847 25.01 11.6 52.9 51 1.9 35.5
06:15 1018 30.06 847 25.01 11.8 53.2 50 1.8 35.3
06:20 1018 30.06 847 25.01 12.2 53.9 51 2.5 36.4
06:25 1018 30.06 847 25.01 12.4 54.3 51 2.5 36.6
06:30 1018 30.06 847 25.01 12.4 54.2 54 3.4 38.2
06:35 1018 30.06 847 25.01 11.8 53.2 56 3.2 37.8
06:40 1018 30.06 847 25.01 11.7 53.1 55 3.1 37.6
06:45 1018 30.06 847 25.01 11.7 53 56 3.3 38
06:50 1018 30.06 847 25.01 11.6 53 56 3.1 37.7
06:55 1018 30.06 847 25.01 11.8 53.2 56 3.5 38.2
07:00 1018 30.06 847 25.01 11.9 53.4 55 3.2 37.8
07:05 1018 30.06 847 25.01 12.1 53.8 54 3.2 37.8
07:10 1018 30.06 847 25.01 12.3 54.2 54 3.3 37.9
07:15 1018 30.06 847 25.01 12.6 54.6 53 3.3 38
07:20 1018 30.06 847 25.01 13.2 55.7 51 3.4 38.2
07:25 1018 30.06 847 25.01 14 57.2 49 3.6 38.4
07:30 1018 30.06 847 25.01 14.4 57.8 47 3.4 38.1
07:35 1018 30.06 847 25.01 15.1 59.2 46 3.5 38.4
07:40 1018 30.06 847 25.01 16.2 61.2 40 2.9 37.2
07:45 1018 30.06 847 25.01 16.7 62.1 39 3 37.4
07:50 1018 30.06 847 25.01 16.6 61.8 39 2.8 37.1
07:55 1018 30.06 847 25.01 17.3 63.1 39 3.3 37.9
08:00 1018 30.06 847 25.01 17.5 63.6 39 3.4 38.1
08:05 1018 30.06 847 25.01 17.9 64.3 36 2.7 36.8
08:10 1018 30.06 847 25.01 17.7 63.8 37 3 37.4
08:15 1018 30.06 847 25.01 17.4 63.3 37 2.7 36.9
08:20 1018 30.06 847 25.01 17.7 63.8 36 2.6 36.6
08:25 1018 30.06 847 25.01 17.6 63.7 39 3.8 38.8
08:30 1018 30.06 847 25.01 17 62.6 40 3.4 38.1
08:35 1018 30.06 847 25.01 17 62.5 39 3.2 37.7
08:40 1018 30.06 847 25.01 17.7 63.9 40 4 39.3
08:45 1018 30.06 847 25.01 17.3 63.2 39 3.4 38.2
08:50 1018 30.06 847 25.01 17.3 63.1 42 4.2 39.6
08:55 1018 30.06 847 25.01 17 62.5 41 3.8 38.8
09:00 1018 30.06 847 25.01 17.5 63.4 41 4.1 39.5
09:05 1018 30.06 847 25.01 17.5 63.6 39 3.7 38.7
09:10 1018 30.06 847 25.01 17.7 63.9 37 3.1 37.6
09:15 1018 30.06 847 25.01 18.5 65.2 35 2.7 36.9
09:20 1018 30.06 847 25.01 18.4 65.2 37 3.7 38.6
09:25 1018 30.06 847 25.01 18.5 65.3 36 3.3 38
09:30 1018 30.06 847 25.01 19.4 66.9 36 4 39.3
09:35 1018 30.06 847 25.01 19.5 67.1 35 3.8 38.8
09:40 1018 30.06 847 25.01 19.7 67.5 34 3.7 38.7
09:45 1018 30.06 847 25.01 19.2 66.6 37 4.4 39.9
09:50 1018 30.06 847 25.01 19.2 66.5 38 4.6 40.2
09:55 1018 30.06 847 25.01 18.8 65.9 40 5 40.9
10:00 1018 30.06 847 25.01 19.2 66.5 36 3.9 39.1
10:05 1018 30.06 847 25.01 19.4 67 36 4.3 39.7
10:10 1018 30.06 847 25.01 20.2 68.3 35 4.4 39.9
10:15 1018 30.06 847 25.01 20 67.9 34 3.7 38.7
10:20 1018 30.06 847 25.01 19.7 67.4 36 4.3 39.7
10:25 1018 30.06 847 25.01 20.2 68.4 33 3.4 38.1
10:30 1018 30.06 847 25.01 20.1 68.2 33 3.6 38.6
10:35 1018 30.06 847 25.01 20.4 68.8 34 4.3 39.7
10:40 1018 30.06 847 25.01 19.9 67.9 32 3 37.4
10:45 1018 30.06 847 25.01 20.9 69.7 32 3.8 38.9
10:50 1018 30.06 847 25.01 21.3 70.3 30 3.3 38
10:55 1018 30.06 847 25.01 21.3 70.4 30 3.3 38
11:00 1018 30.06 847 25.01 21.2 70.1 31 3.3 38
11:05 1018 30.06 847 25.01 21.1 70 31 3.4 38
11:10 1018 30.06 847 25.01 21.2 70.2 30 3.1 37.5
11:15 1018 30.06 847 25.01 21.3 70.3 31 3.8 38.8
11:20 1018 30.06 847 25.01 21.2 70.2 29 2.8 37.1
11:25 1017 30.03 847 25.01 21 69.8 33 4.5 40.1
11:30 1017 30.03 847 25.01 20.3 68.5 31 2.9 37.2
11:35 1017 30.03 847 25.01 21.7 71 30 3.5 38.3
11:40 1017 30.03 847 25.01 21.5 70.6 31 4 39.2
11:45 1017 30.03 846 24.98 20.1 68.2 32 3 37.4
11:50 1017 30.03 846 24.98 20.4 68.7 32 3.1 37.6
11:55 1017 30.03 846 24.98 21.7 71 30 3.4 38
12:00 1017 30.03 846 24.98 22 71.7 29 3.3 38
12:05 1017 30.03 846 24.98 22.8 73.1 30 4.3 39.8
12:10 1017 30.03 846 24.98 22.8 73 29 3.9 39
12:15 1017 30.03 846 24.98 23.6 74.5 27 3.7 38.6
12:20 1017 30.03 846 24.98 23.9 75 26 3.7 38.6
12:25 1017 30.03 846 24.98 23.7 74.6 27 3.8 38.9
12:30 1017 30.03 846 24.98 23 73.4 27 3.1 37.7
12:35 1017 30.03 846 24.98 23.2 73.7 26 2.9 37.3
12:40 1017 30.03 846 24.98 23.3 73.9 25 2.3 36.1
12:45 1017 30.03 846 24.98 23.2 73.7 25 2.5 36.5
12:50 1017 30.03 846 24.98 23.4 74.2 24 1.9 35.5
12:55 1017 30.03 846 24.98 24 75.1 25 3.2 37.8
13:00 1017 30.03 846 24.98 23.8 74.8 25 2.8 37.1
13:05 1017 30.03 846 24.98 24.3 75.7 24 2.7 36.9
13:10 1017 30.03 846 24.98 24.1 75.4 25 3.2 37.8
13:15 1017 30.03 846 24.98 23.3 74 26 2.9 37.3
13:20 1017 30.03 846 24.98 23.2 73.7 25 2.2 35.9
13:25 1017 30.03 846 24.98 23.8 74.9 24 2.4 36.3
13:30 1017 30.03 846 24.98 22.9 73.2 28 3.6 38.4
13:35 1017 30.03 846 24.98 21.8 71.2 28 2.6 36.7
13:40 1017 30.03 846 24.98 22.6 72.7 26 2.4 36.2
13:45 1017 30.03 846 24.98 23.2 73.7 25 2.4 36.4
13:50 1017 30.03 846 24.98 23.6 74.5 25 2.5 36.4
13:55 1017 30.03 846 24.98 23.3 73.9 26 2.9 37.2
14:00 1017 30.03 846 24.98 22.3 72.1 30 3.9 39
14:05 1016 30 846 24.98 21.3 70.3 31 3.5 38.4
14:10 1016 30 846 24.98 21.2 70.1 31 3.8 38.8
14:15 1016 30 845 24.95 21.1 70 32 3.8 38.8
14:20 1016 30 845 24.95 20.8 69.4 33 4.2 39.6
14:25 1016 30 845 24.95 20.9 69.5 31 3.4 38
14:30 1016 30 845 24.95 21.9 71.4 30 3.7 38.6
14:35 1016 30 845 24.95 22.3 72.2 30 4 39.3
14:40 1016 30 845 24.95 22 71.5 31 4.3 39.7
14:45 1016 30 845 24.95 21.5 70.7 31 3.8 38.8
14:50 1016 30 845 24.95 22 71.6 29 3.4 38.2
14:55 1016 30 845 24.95 22 71.6 28 3 37.3
15:00 1016 30 845 24.95 22.1 71.8 27 2.5 36.5
15:05 1016 30 845 24.95 22.9 73.1 24 1.3 34.3
15:10 1015 29.97 845 24.95 23.5 74.2 25 2.7 36.9
15:15 1015 29.97 845 24.95 22.8 73.1 24 1.5 34.7
15:20 1015 29.97 844 24.92 22.9 73.2 21 -0.3 31.4
15:25 1015 29.97 844 24.92 23.9 75 19 -0.6 30.9
15:30 1015 29.97 844 24.92 23.9 74.9 19 -1.2 29.8
15:35 1015 29.97 844 24.92 23.3 73.9 20 -0.7 30.8
15:40 1015 29.97 844 24.92 24.2 75.6 19 -0.9 30.4
15:45 1015 29.97 844 24.92 24.5 76.1 19 -0.3 31.5
15:50 1015 29.97 844 24.92 24.1 75.5 20 0.3 32.5
15:55 1015 29.97 844 24.92 23.7 74.6 21 0 32
16:00 1015 29.97 844 24.92 23.2 73.7 21 0.1 32.2
16:05 1015 29.97 844 24.92 23.3 73.9 21 0.2 32.3
16:10 1015 29.97 844 24.92 23 73.4 21 -0.3 31.5
16:15 1015 29.97 844 24.92 22.8 73.1 22 0.4 32.7
16:20 1015 29.97 844 24.92 22.9 73.3 22 0.2 32.4
16:25 1015 29.97 844 24.92 23.2 73.8 22 0.5 32.8
16:30 1015 29.97 844 24.92 23.3 73.9 23 1.5 34.7
16:35 1015 29.97 844 24.92 22.3 72.1 27 2.6 36.6
16:40 1015 29.97 844 24.92 22.1 71.8 31 4.6 40.2
16:45 1015 29.97 845 24.95 21.1 69.9 36 5.6 42
16:50 1016 30 845 24.95 20.4 68.8 39 6.2 43.2
16:55 1016 30 845 24.95 19.9 67.8 32 2.8 37
17:00 1016 30 845 24.95 19.6 67.3 31 2.1 35.8
17:05 1016 30 846 24.98 18.6 65.5 49 7.9 46.1
17:10 1017 30.03 846 24.98 17.2 63 54 8 46.4
17:15 1017 30.03 846 24.98 16.5 61.7 58 8.2 46.8
17:20 1018 30.06 847 25.01 15.9 60.6 62 8.7 47.7
17:25 1018 30.06 847 25.01 15.4 59.6 72 10.4 50.7
17:30 1018 30.06 847 25.01 14.7 58.4 80 11.3 52.3
17:35 1018 30.06 847 25.01 14.2 57.6 76 10.1 50.2
17:40 1018 30.06 848 25.04 14 57.3 77 10.1 50.3
17:45 1019 30.09 848 25.04 13.7 56.7 78 9.9 49.9
17:50 1019 30.09 848 25.04 13.3 55.9 81 10 50
17:55 1019 30.09 848 25.04 13.1 55.6 81 10 49.9
18:00 1019 30.09 848 25.04 13.2 55.7 80 9.8 49.7
18:05 1019 30.09 848 25.04 13 55.5 83 10.2 50.3
18:10 1018 30.06 848 25.04 12.7 54.8 80 9.4 48.9
18:15 1018 30.06 847 25.01 12.4 54.4 84 9.9 49.8
18:20 1018 30.06 847 25.01 12.4 54.2 81 9.2 48.5
18:25 1018 30.06 847 25.01 12.4 54.3 79 8.9 48
18:30 1018 30.06 847 25.01 12.5 54.6 77 8.6 47.5
18:35 1018 30.06 847 25.01 12.7 54.9 80 9.4 48.9
18:40 1018 30.06 847 25.01 12.6 54.7 81 9.5 49.1
18:45 1018 30.06 847 25.01 12.8 55 83 9.9 49.8
18:50 1018 30.06 847 25.01 12.8 55 80 9.5 49
18:55 1018 30.06 847 25.01 12.8 55 82 9.9 49.8
19:00 1018 30.06 847 25.01 12.9 55.3 81 9.7 49.5
19:05 1018 30.06 847 25.01 13.1 55.6 80 9.7 49.4
19:10 1018 30.06 847 25.01 13.1 55.6 78 9.4 48.8
19:15 1018 30.06 847 25.01 13.2 55.7 81 10 50.1
19:20 1018 30.06 847 25.01 13.3 56 76 9.2 48.5
19:25 1018 30.06 847 25.01 13.4 56.1 76 9.2 48.5
19:30 1018 30.06 848 25.04 13.5 56.3 67 7.5 45.4
19:35 1018 30.06 848 25.04 13.5 56.3 74 9 48.1
19:40 1018 30.06 848 25.04 13.4 56.1 75 9 48.2
19:45 1018 30.06 848 25.04 13.4 56 76 9.3 48.7
19:50 1018 30.06 848 25.04 13.3 55.9 77 9.3 48.8
19:55 1018 30.06 848 25.04 13.2 55.7 78 9.5 49
20:00 1018 30.06 848 25.04 13.3 56 78 9.6 49.2
20:05 1018 30.06 848 25.04 13.3 56 75 9.1 48.3
20:10 1019 30.09 848 25.04 13.3 55.9 76 9.2 48.5
20:15 1019 30.09 848 25.04 13.2 55.7 78 9.4 48.9
20:20 1019 30.09 848 25.04 13 55.4 76 8.9 48
20:25 1019 30.09 848 25.04 12.9 55.2 77 9.1 48.3
20:30 1019 30.09 848 25.04 12.8 55 75 8.5 47.3
20:35 1019 30.09 848 25.04 12.7 54.8 75 8.3 46.9
20:40 1019 30.09 848 25.04 12.6 54.7 75 8.3 47
20:45 1019 30.09 848 25.04 12.6 54.8 73 8 46.4
20:50 1019 30.09 848 25.04 12.6 54.7 74 8.2 46.7
20:55 1019 30.09 848 25.04 12.4 54.4 75 8.1 46.6
21:00 1019 30.09 848 25.04 12.3 54.2 75 8.2 46.7
21:05 1019 30.09 848 25.04 12.2 54 75 8 46.4
21:10 1019 30.09 848 25.04 12.2 54 75 7.9 46.3
21:15 1019 30.09 848 25.04 12.2 53.9 76 8.1 46.5
21:20 1019 30.09 848 25.04 12.1 53.7 78 8.3 47
21:25 1019 30.09 848 25.04 11.9 53.5 79 8.4 47.2
21:30 1019 30.09 848 25.04 12 53.5 78 8.3 46.9
21:35 1019 30.09 848 25.04 12 53.6 78 8.3 47
21:40 1019 30.09 848 25.04 11.8 53.2 79 8.2 46.8
21:45 1019 30.09 848 25.04 11.6 52.9 79 8.2 46.7
21:50 1019 30.09 848 25.04 11.4 52.5 81 8.2 46.7
21:55 1019 30.09 848 25.04 11.3 52.4 78 7.7 45.9
22:00 1019 30.09 848 25.04 11.7 53 77 7.9 46.2
22:05 1019 30.09 848 25.04 11.6 52.8 80 8.2 46.8
22:10 1019 30.09 848 25.04 11.2 52.1 82 8.2 46.8
22:15 1019 30.09 848 25.04 10.9 51.6 82 7.9 46.3
22:20 1019 30.09 849 25.07 10.7 51.3 83 8.1 46.5
22:25 1019 30.09 849 25.07 10.4 50.7 85 8 46.4
22:30 1019 30.09 849 25.07 10.2 50.4 84 7.7 45.9
22:35 1019 30.09 849 25.07 10.1 50.3 85 7.8 46
22:40 1019 30.09 849 25.07 10 49.9 86 7.7 45.9
22:45 1019 30.09 849 25.07 9.9 49.8 86 7.6 45.7
22:50 1019 30.09 849 25.07 9.7 49.4 86 7.5 45.5
22:55 1019 30.09 849 25.07 9.6 49.3 86 7.4 45.3
23:00 1019 30.09 849 25.07 9.7 49.4 85 7.3 45.2
23:05 1019 30.09 849 25.07 9.8 49.7 85 7.5 45.5
23:10 1019 30.09 849 25.07 9.9 49.8 85 7.5 45.6
23:15 1019 30.09 849 25.07 9.9 49.8 84 7.3 45.2
23:20 1020 30.12 849 25.07 9.9 49.8 84 7.4 45.3
23:25 1020 30.12 849 25.07 9.8 49.7 85 7.4 45.4
23:30 1020 30.12 849 25.07 9.6 49.3 86 7.4 45.2
23:35 1019 30.09 849 25.07 9.6 49.2 86 7.3 45.1
23:40 1020 30.12 849 25.07 9.4 49 85 7.1 44.7
23:45 1020 30.12 849 25.07 9.3 48.8 84 6.8 44.2
23:50 1020 30.12 849 25.07 9.5 49.1 82 6.6 43.9
23:55 1020 30.12 849 25.07 9.7 49.5 81 6.6 44
24:00 1020 30.12 849 25.07 9.7 49.4 81 6.6 43.9